createdAt,value
2019-04-16T00:01:18.362Z,11.30
2019-04-16T00:03:53.634Z,11.10
2019-04-16T00:06:41.051Z,11.00
2019-04-16T00:09:17.875Z,11.00
2019-04-16T00:11:56.418Z,10.90
2019-04-16T00:14:35.166Z,10.90
2019-04-16T00:17:04.405Z,10.80
2019-04-16T00:19:34.731Z,10.80
2019-04-16T00:22:31.926Z,10.60
2019-04-16T00:25:00.907Z,10.60
2019-04-16T00:27:29.804Z,10.50
2019-04-16T00:30:03.914Z,10.40
2019-04-16T00:32:30.488Z,10.40
2019-04-16T00:34:59.381Z,10.30
2019-04-16T00:37:28.245Z,10.20
2019-04-16T00:39:57.350Z,10.20
2019-04-16T00:42:26.268Z,10.10
2019-04-16T00:44:55.086Z,10.10
2019-04-16T00:47:23.923Z,10.00
2019-04-16T00:49:57.754Z,10.00
2019-04-16T00:52:23.497Z,9.90
2019-04-16T00:54:52.629Z,9.90
2019-04-16T00:57:21.555Z,10.00
2019-04-16T00:59:54.997Z,9.90
2019-04-16T01:02:21.205Z,9.80
2019-04-16T01:04:50.061Z,9.70
2019-04-16T01:07:18.894Z,9.70
2019-04-16T01:09:48.206Z,9.60
2019-04-16T01:12:17.226Z,9.50
2019-04-16T01:14:46.174Z,9.40
2019-04-16T01:17:15.525Z,9.40
2019-04-16T01:19:44.861Z,9.30
2019-04-16T01:22:16.069Z,9.40
2019-04-16T01:24:44.353Z,9.30
2019-04-16T01:27:13.205Z,9.20
2019-04-16T01:29:42.023Z,9.10
2019-04-16T01:32:33.565Z,9.00
2019-04-16T01:35:24.417Z,8.90
2019-04-16T01:38:10.767Z,8.80
2019-04-16T01:40:50.209Z,8.80
2019-04-16T01:43:19.493Z,8.80
2019-04-16T01:45:48.495Z,8.70
2019-04-16T01:48:17.331Z,8.70
2019-04-16T01:50:46.445Z,8.70
2019-04-16T01:53:15.377Z,8.70
2019-04-16T01:55:44.369Z,8.70
2019-04-16T01:58:13.164Z,8.60
2019-04-16T02:00:42.454Z,8.70
2019-04-16T02:03:11.477Z,8.70
2019-04-16T02:05:40.465Z,8.60
2019-04-16T02:08:09.490Z,8.70
2019-04-16T02:10:39.111Z,8.60
2019-04-16T02:13:08.106Z,8.60
2019-04-16T02:15:37.125Z,8.70
2019-04-16T02:18:06.088Z,8.80
2019-04-16T02:20:38.457Z,8.80
2019-04-16T02:23:05.842Z,8.90
2019-04-16T02:25:34.702Z,8.80
2019-04-16T02:28:03.738Z,8.80
2019-04-16T02:30:37.343Z,8.70
2019-04-16T02:33:03.439Z,8.70
2019-04-16T02:35:32.397Z,8.60
2019-04-16T02:38:01.365Z,8.50
2019-04-16T02:40:30.305Z,8.40
2019-04-16T02:43:04.134Z,8.30
2019-04-16T02:45:29.946Z,8.10
2019-04-16T02:47:58.841Z,8.10
2019-04-16T02:50:37.491Z,8.00
2019-04-16T02:53:25.264Z,8.00
2019-04-16T02:56:04.782Z,7.90
2019-04-16T02:58:41.539Z,7.90
2019-04-16T03:01:20.852Z,7.90
2019-04-16T03:03:57.517Z,7.80
2019-04-16T03:06:26.507Z,7.80
2019-04-16T03:08:55.489Z,7.70
2019-04-16T03:11:24.460Z,7.60
2019-04-16T03:13:58.231Z,7.50
2019-04-16T03:16:31.054Z,7.60
2019-04-16T03:19:12.530Z,7.70
2019-04-16T03:21:41.537Z,7.70
2019-04-16T03:24:10.440Z,7.70
2019-04-16T03:26:39.337Z,7.60
2019-04-16T03:29:08.154Z,7.60
2019-04-16T03:31:36.986Z,7.60
2019-04-16T03:34:06.008Z,7.50
2019-04-16T03:36:35.316Z,7.50
2019-04-16T03:39:06.131Z,7.50
2019-04-16T03:41:35.113Z,7.40
2019-04-16T03:44:05.092Z,7.40
2019-04-16T03:46:34.282Z,7.30
2019-04-16T03:49:03.271Z,7.30
2019-04-16T03:51:32.666Z,7.20
2019-04-16T03:54:04.876Z,7.20
2019-04-16T03:56:33.506Z,7.20
2019-04-16T03:59:02.493Z,7.10
2019-04-16T04:01:31.345Z,7.20
2019-04-16T04:04:00.385Z,7.10
2019-04-16T04:06:29.262Z,7.20
2019-04-16T04:08:58.114Z,7.10
2019-04-16T04:11:27.065Z,7.10
2019-04-16T04:13:55.917Z,7.10
2019-04-16T04:16:24.916Z,7.10
2019-04-16T04:18:53.890Z,7.10
2019-04-16T04:21:22.790Z,7.10
2019-04-16T04:23:51.647Z,7.00
2019-04-16T04:26:20.461Z,7.00
2019-04-16T04:28:51.507Z,7.10
2019-04-16T04:31:19.999Z,7.20
2019-04-16T04:33:48.836Z,7.30
2019-04-16T04:36:19.581Z,7.20
2019-04-16T04:38:48.303Z,7.10
2019-04-16T04:41:20.161Z,7.00
2019-04-16T04:43:48.213Z,7.00
2019-04-16T04:46:17.223Z,7.00
2019-04-16T04:48:46.082Z,7.10
2019-04-16T04:51:15.160Z,7.10
2019-04-16T04:53:44.058Z,7.20
2019-04-16T04:56:13.174Z,7.40
2019-04-16T04:58:42.011Z,7.50
2019-04-16T05:01:13.625Z,7.60
2019-04-16T05:04:02.134Z,7.60
2019-04-16T05:06:33.798Z,7.40
2019-04-16T05:09:02.751Z,7.30
2019-04-16T05:11:31.599Z,7.30
2019-04-16T05:14:00.588Z,7.20
2019-04-16T05:16:31.574Z,7.40
2019-04-16T05:19:00.100Z,7.60
2019-04-16T05:21:29.025Z,7.70
2019-04-16T05:23:58.186Z,7.60
2019-04-16T05:26:27.194Z,7.60
2019-04-16T05:28:57.701Z,7.40
2019-04-16T05:31:26.762Z,7.50
2019-04-16T05:33:59.478Z,7.60
2019-04-16T05:36:26.339Z,7.70
2019-04-16T05:38:56.353Z,7.70
2019-04-16T05:41:25.531Z,7.80
2019-04-16T05:43:54.802Z,7.90
2019-04-16T05:46:23.832Z,8.00
2019-04-16T05:48:53.984Z,8.00
2019-04-16T05:51:23.949Z,8.00
2019-04-16T05:53:55.148Z,8.10
2019-04-16T05:56:48.418Z,8.20
2019-04-16T05:59:17.251Z,8.20
2019-04-16T06:01:51.063Z,8.40
2019-04-16T06:04:24.294Z,8.40
2019-04-16T06:06:50.649Z,8.60
2019-04-16T06:09:19.470Z,8.80
2019-04-16T06:11:48.435Z,8.90
2019-04-16T06:14:35.313Z,9.20
2019-04-16T06:17:32.899Z,9.30
2019-04-16T06:20:21.486Z,9.60
2019-04-16T06:23:18.667Z,9.90
2019-04-16T06:25:51.349Z,10.20
2019-04-16T06:28:38.353Z,10.70
2019-04-16T06:31:27.605Z,11.20
2019-04-16T06:34:14.514Z,11.40
2019-04-16T06:36:55.130Z,11.70
2019-04-16T06:39:33.767Z,11.90
2019-04-16T06:42:20.974Z,12.00
2019-04-16T06:44:52.946Z,12.20
2019-04-16T06:47:53.068Z,12.50
2019-04-16T06:50:43.861Z,12.80
2019-04-16T06:53:31.739Z,13.10
2019-04-16T06:56:37.389Z,13.30
2019-04-16T06:59:29.627Z,13.20
2019-04-16T07:02:12.265Z,13.50
2019-04-16T07:04:50.245Z,14.30
2019-04-16T07:07:50.341Z,14.20
2019-04-16T07:10:21.549Z,14.70
2019-04-16T07:12:50.535Z,15.20
2019-04-16T07:15:23.734Z,15.40
2019-04-16T07:17:50.200Z,15.40
2019-04-16T07:20:19.266Z,15.10
2019-04-16T07:22:52.690Z,15.40
2019-04-16T07:25:19.237Z,16.00
2019-04-16T07:28:00.522Z,15.70
2019-04-16T07:30:40.033Z,16.30
2019-04-16T07:33:24.037Z,16.10
2019-04-16T07:36:06.710Z,16.10
2019-04-16T07:38:50.633Z,16.60
2019-04-16T07:41:31.295Z,17.10
2019-04-16T07:44:12.373Z,17.30
2019-04-16T07:47:19.656Z,17.70
2019-04-16T07:50:01.849Z,18.00
2019-04-16T07:53:00.154Z,17.60
2019-04-16T07:55:40.926Z,17.20
2019-04-16T07:58:10.218Z,17.80
2019-04-16T08:00:41.400Z,17.60
2019-04-16T08:03:10.072Z,18.20
2019-04-16T08:05:41.016Z,18.60
2019-04-16T08:08:09.566Z,18.80
2019-04-16T08:10:38.585Z,18.90
2019-04-16T08:13:14.664Z,18.90
2019-04-16T08:15:43.624Z,19.50
2019-04-16T08:18:12.654Z,19.20
2019-04-16T08:20:41.662Z,20.20
2019-04-16T08:23:28.398Z,21.00
2019-04-16T08:26:03.170Z,21.40
2019-04-16T08:28:28.784Z,21.40
2019-04-16T08:30:58.023Z,21.70
2019-04-16T08:33:28.533Z,21.20
2019-04-16T08:35:57.781Z,21.40
2019-04-16T08:38:26.698Z,22.10
2019-04-16T08:40:55.613Z,22.30
2019-04-16T08:43:26.678Z,22.30
2019-04-16T08:45:55.397Z,23.00
2019-04-16T08:48:24.290Z,23.60
2019-04-16T08:50:57.889Z,23.30
2019-04-16T08:53:23.883Z,23.30
2019-04-16T08:55:52.730Z,22.30
2019-04-16T08:58:21.560Z,22.20
2019-04-16T09:00:50.891Z,23.00
2019-04-16T09:03:20.034Z,22.80
2019-04-16T09:05:49.117Z,23.40
2019-04-16T09:08:24.841Z,23.50
2019-04-16T09:10:53.682Z,24.20
2019-04-16T09:13:26.466Z,24.50
2019-04-16T09:15:55.501Z,24.90
2019-04-16T09:18:29.592Z,25.80
2019-04-16T09:20:58.483Z,26.40
2019-04-16T09:23:27.605Z,26.00
2019-04-16T09:26:13.563Z,25.50
2019-04-16T09:28:41.154Z,26.10
2019-04-16T09:31:30.780Z,25.60
2019-04-16T09:34:17.643Z,25.60
2019-04-16T09:37:01.157Z,25.40
2019-04-16T09:39:52.058Z,25.10
2019-04-16T09:42:20.927Z,25.40
2019-04-16T09:44:49.799Z,26.60
2019-04-16T09:47:18.721Z,27.20
2019-04-16T09:49:47.551Z,26.90
2019-04-16T09:52:16.506Z,26.40
2019-04-16T09:54:45.526Z,27.90
2019-04-16T09:57:14.462Z,27.50
2019-04-16T09:59:56.942Z,26.60
2019-04-16T10:02:29.002Z,27.50
2019-04-16T10:04:57.898Z,28.20
2019-04-16T10:07:26.939Z,27.40
2019-04-16T10:09:55.808Z,26.60
2019-04-16T10:12:25.104Z,27.50
2019-04-16T10:14:54.235Z,28.10
2019-04-16T10:17:23.166Z,27.90
2019-04-16T10:19:52.129Z,27.60
2019-04-16T10:22:21.175Z,28.30
2019-04-16T10:25:02.522Z,29.00
2019-04-16T10:27:39.524Z,28.20
2019-04-16T10:30:21.908Z,27.60
2019-04-16T10:32:50.847Z,28.70
2019-04-16T10:35:20.083Z,29.20
2019-04-16T10:37:48.939Z,29.10
2019-04-16T10:40:28.370Z,29.00
2019-04-16T10:43:15.081Z,28.80
2019-04-16T10:46:09.845Z,28.90
2019-04-16T10:49:13.124Z,29.20
2019-04-16T10:51:48.897Z,28.60
2019-04-16T10:54:43.120Z,28.30
2019-04-16T10:57:38.409Z,28.40
2019-04-16T11:00:20.248Z,28.30
2019-04-16T11:02:52.974Z,29.40
2019-04-16T11:05:56.781Z,30.20
2019-04-16T11:08:23.938Z,29.90
2019-04-16T11:10:53.061Z,28.90
2019-04-16T11:13:34.030Z,30.40
2019-04-16T11:16:09.342Z,30.40
2019-04-16T11:18:38.486Z,29.80
2019-04-16T11:21:08.411Z,28.40
2019-04-16T11:23:37.782Z,29.00
2019-04-16T11:26:06.855Z,28.90
2019-04-16T11:28:35.869Z,28.80
2019-04-16T11:31:07.467Z,29.10
2019-04-16T11:33:36.507Z,29.60
2019-04-16T11:36:17.352Z,30.20
2019-04-16T11:38:36.293Z,29.90
2019-04-16T11:41:05.329Z,29.00
2019-04-16T11:43:34.198Z,29.20
2019-04-16T11:46:03.390Z,28.20
2019-04-16T11:48:37.234Z,29.30
2019-04-16T11:51:03.365Z,31.00
2019-04-16T11:53:32.688Z,30.70
2019-04-16T11:56:01.737Z,30.70
2019-04-16T11:58:35.721Z,30.90
2019-04-16T12:01:23.259Z,31.70
2019-04-16T12:03:56.717Z,31.10
2019-04-16T12:06:50.974Z,32.70
2019-04-16T12:09:37.578Z,31.20
2019-04-16T12:12:11.581Z,31.80
2019-04-16T12:14:48.623Z,30.20
2019-04-16T12:17:44.103Z,30.40
2019-04-16T12:20:21.894Z,29.50
2019-04-16T12:22:59.797Z,29.30
2019-04-16T12:25:38.567Z,28.90
2019-04-16T12:28:35.891Z,28.70
2019-04-16T12:31:10.823Z,28.40
2019-04-16T12:34:08.663Z,27.50
2019-04-16T12:37:02.637Z,28.10
2019-04-16T12:39:49.577Z,28.00
2019-04-16T12:42:41.046Z,28.00
2019-04-16T12:45:25.606Z,28.40
2019-04-16T12:48:01.807Z,28.20
2019-04-16T12:50:39.110Z,27.90
2019-04-16T12:53:27.543Z,27.50
2019-04-16T12:56:21.701Z,27.20
2019-04-16T12:58:55.334Z,27.50
2019-04-16T13:01:46.030Z,27.60
2019-04-16T13:04:22.360Z,28.80
2019-04-16T13:06:59.169Z,28.70
2019-04-16T13:09:33.121Z,28.20
2019-04-16T13:12:14.450Z,28.50
2019-04-16T13:15:05.304Z,28.40
2019-04-16T13:17:52.292Z,28.00
2019-04-16T13:20:46.493Z,27.10
2019-04-16T13:23:22.609Z,26.70
2019-04-16T13:26:00.050Z,26.20
2019-04-16T13:28:29.347Z,25.40
2019-04-16T13:30:58.293Z,25.10
2019-04-16T13:33:27.214Z,25.10
2019-04-16T13:35:56.097Z,25.40
2019-04-16T13:38:26.051Z,25.00
2019-04-16T13:40:55.042Z,24.00
2019-04-16T13:43:28.770Z,24.60
2019-04-16T13:45:58.085Z,25.10
2019-04-16T13:48:38.009Z,24.60
2019-04-16T13:51:14.901Z,24.50
2019-04-16T13:54:03.168Z,24.50
2019-04-16T13:56:50.406Z,25.20
2019-04-16T13:59:49.373Z,24.80
2019-04-16T14:02:36.011Z,24.50
2019-04-16T14:05:05.767Z,24.40
2019-04-16T14:07:34.702Z,24.50
2019-04-16T14:10:03.811Z,24.50
2019-04-16T14:12:41.925Z,24.10
2019-04-16T14:15:06.292Z,23.80
2019-04-16T14:17:36.474Z,23.60
2019-04-16T14:20:08.633Z,23.60
2019-04-16T14:22:36.679Z,23.90
2019-04-16T14:25:07.058Z,23.70
2019-04-16T14:27:35.982Z,23.80
2019-04-16T14:30:11.425Z,23.60
2019-04-16T14:32:40.655Z,24.00
2019-04-16T14:35:12.717Z,23.50
2019-04-16T14:37:41.731Z,23.40
2019-04-16T14:40:30.029Z,23.60
2019-04-16T14:42:59.214Z,24.00
2019-04-16T14:45:38.341Z,23.80
2019-04-16T14:48:08.255Z,23.30
2019-04-16T14:50:34.710Z,23.10
2019-04-16T14:53:03.751Z,22.90
2019-04-16T14:55:43.708Z,22.60
2019-04-16T14:58:32.018Z,22.20
2019-04-16T15:01:19.291Z,22.10
2019-04-16T15:04:06.242Z,22.20
2019-04-16T15:06:53.629Z,22.60
2019-04-16T15:09:41.741Z,22.70
2019-04-16T15:12:35.734Z,22.90
2019-04-16T15:15:20.156Z,22.90
2019-04-16T15:18:12.026Z,22.60
2019-04-16T15:21:02.623Z,22.50
2019-04-16T15:23:54.478Z,22.30
2019-04-16T15:26:31.815Z,22.70
2019-04-16T15:29:08.239Z,22.50
2019-04-16T15:32:06.070Z,22.00
2019-04-16T15:34:41.845Z,21.90
2019-04-16T15:37:17.671Z,21.70
2019-04-16T15:39:50.474Z,21.60
2019-04-16T15:42:29.558Z,21.20
2019-04-16T15:45:08.463Z,21.30
2019-04-16T15:48:04.435Z,21.20
2019-04-16T15:50:55.437Z,21.00
2019-04-16T15:53:42.558Z,21.10
2019-04-16T15:56:30.621Z,20.90
2019-04-16T15:59:24.504Z,20.90
2019-04-16T16:02:21.430Z,21.00
2019-04-16T16:04:59.445Z,20.90
2019-04-16T16:07:32.375Z,20.50
2019-04-16T16:10:18.499Z,20.30
2019-04-16T16:12:47.525Z,19.90
2019-04-16T16:15:16.597Z,19.70
2019-04-16T16:17:45.647Z,19.50
2019-04-16T16:20:14.939Z,19.50
2019-04-16T16:22:43.894Z,19.50
2019-04-16T16:25:12.829Z,19.50
2019-04-16T16:27:46.714Z,19.10
2019-04-16T16:30:15.070Z,19.00
2019-04-16T16:32:43.225Z,19.30
2019-04-16T16:35:16.980Z,19.20
2019-04-16T16:37:42.773Z,19.20
2019-04-16T16:40:14.757Z,19.00
2019-04-16T16:42:42.691Z,19.00
2019-04-16T16:45:12.098Z,18.70
2019-04-16T16:47:41.376Z,18.80
2019-04-16T16:50:14.705Z,18.60
2019-04-16T16:52:51.326Z,18.50
2019-04-16T16:55:30.175Z,18.30
2019-04-16T16:58:11.025Z,18.20
2019-04-16T17:01:07.914Z,18.00
2019-04-16T17:03:58.146Z,17.80
2019-04-16T17:06:27.378Z,17.70
2019-04-16T17:08:56.289Z,17.70
2019-04-16T17:11:25.150Z,17.70
2019-04-16T17:13:54.726Z,17.90
2019-04-16T17:16:23.759Z,18.00
2019-04-16T17:18:52.666Z,18.00
2019-04-16T17:21:21.541Z,17.70
2019-04-16T17:23:50.742Z,17.50
2019-04-16T17:26:19.663Z,17.50
2019-04-16T17:28:48.500Z,17.50
2019-04-16T17:31:17.483Z,17.30
2019-04-16T17:33:46.571Z,17.30
2019-04-16T17:36:15.384Z,17.40
2019-04-16T17:38:44.286Z,17.30
2019-04-16T17:41:16.902Z,17.30
2019-04-16T17:44:08.001Z,17.50
2019-04-16T17:47:01.330Z,17.50
2019-04-16T17:50:05.105Z,17.60
2019-04-16T17:52:56.007Z,17.50
2019-04-16T17:55:35.554Z,17.40
2019-04-16T17:58:10.950Z,17.40
2019-04-16T18:00:55.579Z,17.50
2019-04-16T18:03:37.023Z,17.50
2019-04-16T18:06:14.126Z,17.50
2019-04-16T18:09:07.531Z,17.50
2019-04-16T18:11:44.708Z,17.50
2019-04-16T18:14:32.917Z,17.40
2019-04-16T18:17:16.725Z,17.40
2019-04-16T18:20:12.599Z,17.00
2019-04-16T18:22:50.676Z,17.20
2019-04-16T18:25:36.847Z,17.20
2019-04-16T18:28:10.897Z,17.30
2019-04-16T18:30:44.720Z,17.40
2019-04-16T18:33:31.394Z,17.40
2019-04-16T18:36:04.430Z,17.50
2019-04-16T18:39:04.956Z,17.50
2019-04-16T18:41:39.403Z,17.50
2019-04-16T18:44:42.689Z,17.30
2019-04-16T18:47:29.414Z,17.30
2019-04-16T18:50:00.706Z,17.40
2019-04-16T18:52:29.477Z,17.40
2019-04-16T18:54:58.747Z,17.40
2019-04-16T18:57:27.697Z,17.40
2019-04-16T18:59:56.821Z,17.30
2019-04-16T19:02:27.727Z,17.20
2019-04-16T19:04:56.591Z,17.10
2019-04-16T19:07:25.425Z,17.10
2019-04-16T19:09:54.336Z,16.90
2019-04-16T19:12:23.329Z,16.90
2019-04-16T19:14:52.447Z,16.90
2019-04-16T19:17:21.575Z,16.90
2019-04-16T19:19:50.594Z,16.60
2019-04-16T19:22:19.731Z,16.70
2019-04-16T19:24:48.722Z,16.70
2019-04-16T19:27:17.638Z,16.60
2019-04-16T19:29:46.596Z,16.60
2019-04-16T19:32:15.621Z,16.60
2019-04-16T19:34:44.593Z,16.60
2019-04-16T19:37:13.698Z,16.60
2019-04-16T19:39:43.806Z,16.50
2019-04-16T19:42:13.245Z,16.40
2019-04-16T19:44:42.210Z,16.40
2019-04-16T19:47:11.117Z,16.40
2019-04-16T19:49:40.047Z,16.40
2019-04-16T19:52:08.968Z,16.30
2019-04-16T19:54:37.816Z,16.30
2019-04-16T19:57:06.798Z,16.10
2019-04-16T19:59:35.822Z,16.00
2019-04-16T20:02:04.818Z,16.10
2019-04-16T20:04:33.871Z,16.10
2019-04-16T20:07:02.633Z,16.10
2019-04-16T20:09:31.659Z,16.00
2019-04-16T20:12:00.649Z,16.00
2019-04-16T20:14:29.682Z,16.00
2019-04-16T20:16:58.564Z,16.00
2019-04-16T20:19:27.354Z,15.90
2019-04-16T20:21:56.372Z,15.90
2019-04-16T20:24:25.262Z,15.80
2019-04-16T20:26:54.281Z,15.80
2019-04-16T20:29:23.263Z,15.80
2019-04-16T20:31:52.293Z,15.80
2019-04-16T20:34:21.201Z,15.60
2019-04-16T20:36:52.161Z,15.50
2019-04-16T20:39:20.773Z,15.50
2019-04-16T20:41:52.710Z,15.50
2019-04-16T20:44:20.274Z,15.50
2019-04-16T20:46:49.093Z,15.50
2019-04-16T20:49:17.994Z,15.50
2019-04-16T20:51:46.837Z,15.40
2019-04-16T20:54:15.695Z,15.40
2019-04-16T20:56:44.677Z,15.40
2019-04-16T20:59:13.624Z,15.40
2019-04-16T21:01:42.546Z,15.40
2019-04-16T21:04:11.384Z,15.30
2019-04-16T21:06:41.950Z,15.20
2019-04-16T21:09:12.425Z,15.20
2019-04-16T21:11:41.918Z,15.20
2019-04-16T21:14:10.898Z,15.10
2019-04-16T21:16:39.718Z,14.90
2019-04-16T21:19:22.455Z,14.70
2019-04-16T21:21:39.125Z,14.80
2019-04-16T21:24:08.974Z,14.90
2019-04-16T21:26:38.439Z,14.80
2019-04-16T21:29:33.373Z,14.80
2019-04-16T21:32:03.331Z,14.80
2019-04-16T21:34:50.740Z,14.80
2019-04-16T21:37:37.598Z,14.70
2019-04-16T21:40:07.040Z,14.60
2019-04-16T21:42:35.892Z,14.50
2019-04-16T21:45:06.496Z,14.60
2019-04-16T21:47:35.490Z,14.60
2019-04-16T21:50:04.658Z,14.50
2019-04-16T21:52:33.530Z,14.30
2019-04-16T21:55:04.659Z,14.30
2019-04-16T21:57:33.292Z,14.40
2019-04-16T22:00:02.658Z,14.50
2019-04-16T22:02:37.868Z,14.60
2019-04-16T22:05:08.925Z,14.50
2019-04-16T22:07:37.906Z,14.50
2019-04-16T22:10:07.263Z,14.50
2019-04-16T22:12:36.232Z,14.50
2019-04-16T22:15:06.065Z,14.40
2019-04-16T22:17:35.783Z,14.30
2019-04-16T22:20:06.340Z,14.40
2019-04-16T22:22:35.257Z,14.30
2019-04-16T22:25:04.291Z,14.10
2019-04-16T22:27:33.145Z,13.90
2019-04-16T22:30:02.170Z,13.90
2019-04-16T22:32:31.371Z,14.00
2019-04-16T22:35:00.231Z,14.10
2019-04-16T22:37:29.409Z,14.00
2019-04-16T22:40:16.384Z,13.80
2019-04-16T22:43:13.657Z,13.80
2019-04-16T22:46:01.635Z,13.80
2019-04-16T22:48:30.554Z,13.60
2019-04-16T22:50:59.434Z,13.60
2019-04-16T22:53:28.291Z,13.60
2019-04-16T22:55:58.097Z,13.60
2019-04-16T22:58:46.809Z,13.80
2019-04-16T23:01:18.914Z,13.80
2019-04-16T23:03:49.786Z,13.80
2019-04-16T23:06:18.898Z,13.80
2019-04-16T23:08:47.974Z,13.80
2019-04-16T23:11:16.969Z,13.90
2019-04-16T23:13:45.879Z,13.90
2019-04-16T23:16:15.033Z,13.80
2019-04-16T23:18:48.796Z,13.80
2019-04-16T23:21:14.619Z,13.80
2019-04-16T23:23:43.575Z,13.80
2019-04-16T23:26:12.429Z,13.90
2019-04-16T23:28:42.443Z,13.90
2019-04-16T23:31:12.119Z,13.90
2019-04-16T23:33:41.107Z,13.90
2019-04-16T23:36:15.427Z,13.90
2019-04-16T23:38:40.722Z,13.90
2019-04-16T23:41:15.535Z,13.70
2019-04-16T23:43:59.294Z,13.60
2019-04-16T23:46:46.200Z,13.60
2019-04-16T23:49:37.843Z,13.60
2019-04-16T23:52:12.778Z,13.70
2019-04-16T23:55:00.776Z,13.80
2019-04-16T23:57:53.599Z,13.60
